createdAt,value
2022-10-10T00:01:22.205Z,9.56
2022-10-10T00:04:10.588Z,9.62
2022-10-10T00:07:00.343Z,9.65
2022-10-10T00:09:48.928Z,9.65
2022-10-10T00:12:37.379Z,9.66
2022-10-10T00:15:26.212Z,9.67
2022-10-10T00:18:14.636Z,9.65
2022-10-10T00:21:03.171Z,9.67
2022-10-10T00:23:53.192Z,9.66
2022-10-10T00:26:41.575Z,9.61
2022-10-10T00:29:30.030Z,9.63
2022-10-10T00:32:18.479Z,9.55
2022-10-10T00:35:07.898Z,9.51
2022-10-10T00:37:56.375Z,9.45
2022-10-10T00:40:50.934Z,9.43
2022-10-10T00:43:39.505Z,9.37
2022-10-10T00:46:27.903Z,9.33
2022-10-10T00:49:19.248Z,9.40
2022-10-10T00:52:09.630Z,9.38
2022-10-10T00:54:58.063Z,8.54
2022-10-10T00:57:47.927Z,9.31
2022-10-10T01:00:36.382Z,9.32
2022-10-10T01:03:25.105Z,9.28
2022-10-10T01:06:13.573Z,9.44
2022-10-10T01:09:02.142Z,9.31
2022-10-10T01:11:53.415Z,9.33
2022-10-10T01:14:47.611Z,9.33
2022-10-10T01:17:40.279Z,9.37
2022-10-10T01:21:00.518Z,9.33
2022-10-10T01:24:15.508Z,9.24
2022-10-10T01:27:17.686Z,9.29
2022-10-10T01:30:09.648Z,8.42
2022-10-10T01:33:06.236Z,9.28
2022-10-10T01:35:56.949Z,9.35
2022-10-10T01:38:50.660Z,9.25
2022-10-10T01:41:43.224Z,9.36
2022-10-10T01:44:31.640Z,9.38
2022-10-10T01:47:22.403Z,9.33
2022-10-10T01:50:14.276Z,9.44
2022-10-10T01:53:10.263Z,9.52
2022-10-10T01:56:08.291Z,9.55
2022-10-10T01:59:08.336Z,9.59
2022-10-10T02:01:59.291Z,9.65
2022-10-10T02:04:50.900Z,9.41
2022-10-10T02:07:44.276Z,9.50
2022-10-10T02:10:35.943Z,9.40
2022-10-10T02:13:28.484Z,9.46
2022-10-10T02:16:20.009Z,9.29
2022-10-10T02:19:10.130Z,9.47
2022-10-10T02:22:00.550Z,9.43
2022-10-10T02:24:49.019Z,9.29
2022-10-10T02:27:42.879Z,9.26
2022-10-10T02:30:31.793Z,9.23
2022-10-10T02:33:23.978Z,9.21
2022-10-10T02:36:12.990Z,9.15
2022-10-10T02:39:03.331Z,9.11
2022-10-10T02:41:52.420Z,9.23
2022-10-10T02:44:40.938Z,9.29
2022-10-10T02:47:29.368Z,9.35
2022-10-10T02:50:17.939Z,9.36
2022-10-10T02:53:06.391Z,9.33
2022-10-10T02:55:56.175Z,9.34
2022-10-10T02:58:44.627Z,9.31
2022-10-10T03:01:33.053Z,9.32
2022-10-10T03:04:21.485Z,9.36
2022-10-10T03:07:09.907Z,9.31
2022-10-10T03:09:58.336Z,9.33
2022-10-10T03:12:48.358Z,9.30
2022-10-10T03:15:36.967Z,9.42
2022-10-10T03:18:25.596Z,9.38
2022-10-10T03:21:14.071Z,9.33
2022-10-10T03:24:02.511Z,9.26
2022-10-10T03:26:50.912Z,9.29
2022-10-10T03:29:40.668Z,9.36
2022-10-10T03:32:29.139Z,9.32
2022-10-10T03:35:17.602Z,9.27
2022-10-10T03:38:06.301Z,9.21
2022-10-10T03:40:54.737Z,9.27
2022-10-10T03:43:43.193Z,9.26
2022-10-10T03:46:32.998Z,9.23
2022-10-10T03:49:21.451Z,9.25
2022-10-10T03:52:09.897Z,9.32
2022-10-10T03:54:58.327Z,9.26
2022-10-10T03:57:46.779Z,9.20
2022-10-10T04:00:35.233Z,8.91
2022-10-10T04:03:25.496Z,8.95
2022-10-10T04:06:14.647Z,8.94
2022-10-10T04:09:04.233Z,8.95
2022-10-10T04:11:52.668Z,8.77
2022-10-10T04:14:41.088Z,8.95
2022-10-10T04:17:29.506Z,8.94
2022-10-10T04:20:19.671Z,8.75
2022-10-10T04:23:08.119Z,8.86
2022-10-10T04:25:56.557Z,8.93
2022-10-10T04:28:45.002Z,8.87
2022-10-10T04:31:33.808Z,8.91
2022-10-10T04:34:22.279Z,8.92
2022-10-10T04:37:12.049Z,8.83
2022-10-10T04:40:00.468Z,8.96
2022-10-10T04:42:49.137Z,8.92
2022-10-10T04:45:37.972Z,8.96
2022-10-10T04:48:26.709Z,8.98
2022-10-10T04:51:15.213Z,9.03
2022-10-10T04:54:05.276Z,9.06
2022-10-10T04:56:53.800Z,8.74
2022-10-10T04:59:42.194Z,9.04
2022-10-10T05:02:30.605Z,8.99
2022-10-10T05:05:19.065Z,8.78
2022-10-10T05:08:07.556Z,8.73
2022-10-10T05:10:57.358Z,8.94
2022-10-10T05:13:45.824Z,8.86
2022-10-10T05:16:34.308Z,8.84
2022-10-10T05:19:22.935Z,8.84
2022-10-10T05:22:11.367Z,8.92
2022-10-10T05:24:59.903Z,8.91
2022-10-10T05:27:49.714Z,8.87
2022-10-10T05:30:38.125Z,8.91
2022-10-10T05:33:26.637Z,8.95
2022-10-10T05:36:15.424Z,9.00
2022-10-10T05:39:03.854Z,8.93
2022-10-10T05:41:52.452Z,8.92
2022-10-10T05:44:42.232Z,8.97
2022-10-10T05:47:30.991Z,9.14
2022-10-10T05:50:28.846Z,9.24
2022-10-10T05:53:17.643Z,9.25
2022-10-10T05:56:06.468Z,9.42
2022-10-10T05:58:55.016Z,9.49
2022-10-10T06:01:44.795Z,9.37
2022-10-10T06:04:33.249Z,9.62
2022-10-10T06:07:21.738Z,9.48
2022-10-10T06:10:11.377Z,9.65
2022-10-10T06:12:59.820Z,9.63
2022-10-10T06:15:51.679Z,9.73
2022-10-10T06:18:41.493Z,9.68
2022-10-10T06:21:30.028Z,9.58
2022-10-10T06:24:18.473Z,9.64
2022-10-10T06:27:06.992Z,9.72
2022-10-10T06:29:55.412Z,9.74
2022-10-10T06:32:43.897Z,10.17
2022-10-10T06:35:33.661Z,10.47
2022-10-10T06:38:22.161Z,10.86
2022-10-10T06:41:11.338Z,11.37
2022-10-10T06:43:59.807Z,11.37
2022-10-10T06:46:48.277Z,11.19
2022-10-10T06:49:36.743Z,11.28
2022-10-10T06:52:26.591Z,11.22
2022-10-10T06:55:15.044Z,11.02
2022-10-10T06:58:03.512Z,10.95
2022-10-10T07:00:52.992Z,11.02
2022-10-10T07:03:41.595Z,10.96
2022-10-10T07:06:34.557Z,11.19
2022-10-10T07:09:24.728Z,11.22
2022-10-10T07:12:13.228Z,11.17
2022-10-10T07:15:01.697Z,11.23
2022-10-10T07:17:54.281Z,11.22
2022-10-10T07:20:42.896Z,11.26
2022-10-10T07:23:32.878Z,11.31
2022-10-10T07:26:22.759Z,11.25
2022-10-10T07:29:11.256Z,11.25
2022-10-10T07:31:59.824Z,11.22
2022-10-10T07:34:48.325Z,11.26
2022-10-10T07:37:36.750Z,11.27
2022-10-10T07:40:25.357Z,11.46
2022-10-10T07:43:15.444Z,12.09
2022-10-10T07:46:05.896Z,12.48
2022-10-10T07:48:56.853Z,12.88
2022-10-10T07:51:45.354Z,13.11
2022-10-10T07:54:34.246Z,13.27
2022-10-10T07:57:22.706Z,13.56
2022-10-10T08:00:13.968Z,13.51
2022-10-10T08:03:02.594Z,13.86
2022-10-10T08:05:51.090Z,14.28
2022-10-10T08:08:50.031Z,14.45
2022-10-10T08:11:39.171Z,14.83
2022-10-10T08:14:27.864Z,13.96
2022-10-10T08:17:17.683Z,15.12
2022-10-10T08:20:07.450Z,15.30
2022-10-10T08:22:56.133Z,15.63
2022-10-10T08:25:44.606Z,15.75
2022-10-10T08:28:33.064Z,15.85
2022-10-10T08:31:23.826Z,15.99
2022-10-10T08:34:14.160Z,16.21
2022-10-10T08:37:02.695Z,16.20
2022-10-10T08:39:51.208Z,16.28
2022-10-10T08:42:48.920Z,16.60
2022-10-10T08:45:40.915Z,16.51
2022-10-10T08:48:31.119Z,16.42
2022-10-10T08:51:27.591Z,16.64
2022-10-10T08:54:18.630Z,16.61
2022-10-10T08:57:08.126Z,16.79
2022-10-10T09:00:00.020Z,17.02
2022-10-10T09:02:55.038Z,17.19
2022-10-10T09:05:50.883Z,17.16
2022-10-10T09:08:48.785Z,17.43
2022-10-10T09:11:50.049Z,17.31
2022-10-10T09:14:40.900Z,17.38
2022-10-10T09:17:37.067Z,17.72
2022-10-10T09:20:43.485Z,18.11
2022-10-10T09:23:33.830Z,18.36
2022-10-10T09:26:26.140Z,18.69
2022-10-10T09:29:26.570Z,18.97
2022-10-10T09:32:17.162Z,19.14
2022-10-10T09:35:15.374Z,19.28
2022-10-10T09:38:15.281Z,19.43
2022-10-10T09:41:07.237Z,19.66
2022-10-10T09:43:58.326Z,19.77
2022-10-10T09:46:46.845Z,19.90
2022-10-10T09:49:35.607Z,20.02
2022-10-10T09:52:28.595Z,20.19
2022-10-10T09:55:25.451Z,20.36
2022-10-10T09:58:17.984Z,20.56
2022-10-10T10:01:19.429Z,20.60
2022-10-10T10:04:29.658Z,20.78
2022-10-10T10:07:29.760Z,20.80
2022-10-10T10:10:20.810Z,20.55
2022-10-10T10:13:14.553Z,20.78
2022-10-10T10:16:06.612Z,20.95
2022-10-10T10:18:56.583Z,21.09
2022-10-10T10:21:52.522Z,21.17
2022-10-10T10:24:40.984Z,21.31
2022-10-10T10:27:29.958Z,21.37
2022-10-10T10:30:25.703Z,21.46
2022-10-10T10:33:22.788Z,21.73
2022-10-10T10:36:26.363Z,21.46
2022-10-10T10:39:27.513Z,21.78
2022-10-10T10:42:39.900Z,21.85
2022-10-10T10:45:35.034Z,21.79
2022-10-10T10:48:28.828Z,22.04
2022-10-10T10:51:29.827Z,22.04
2022-10-10T10:54:31.402Z,22.14
2022-10-10T10:57:37.108Z,22.23
2022-10-10T11:01:20.367Z,22.40
2022-10-10T11:05:18.550Z,22.41
2022-10-10T11:07:19.590Z,22.65
2022-10-10T11:10:14.237Z,22.59
2022-10-10T11:13:08.992Z,22.53
2022-10-10T11:16:06.694Z,22.51
2022-10-10T11:19:08.230Z,22.53
2022-10-10T11:22:01.823Z,22.79
2022-10-10T11:24:55.029Z,22.94
2022-10-10T11:27:48.004Z,23.16
2022-10-10T11:30:41.003Z,23.19
2022-10-10T11:33:31.435Z,22.99
2022-10-10T11:36:22.149Z,23.08
2022-10-10T11:39:15.941Z,23.13
2022-10-10T11:42:09.144Z,23.14
2022-10-10T11:45:01.185Z,23.08
2022-10-10T11:47:56.057Z,23.16
2022-10-10T11:50:44.751Z,22.36
2022-10-10T11:53:37.407Z,23.28
2022-10-10T11:56:30.285Z,23.48
2022-10-10T11:59:24.859Z,23.45
2022-10-10T12:02:19.529Z,22.90
2022-10-10T12:05:19.489Z,23.57
2022-10-10T12:08:14.349Z,23.68
2022-10-10T12:11:10.900Z,23.68
2022-10-10T12:14:01.294Z,23.70
2022-10-10T12:16:51.948Z,23.75
2022-10-10T12:19:40.482Z,23.80
2022-10-10T12:22:30.320Z,23.77
2022-10-10T12:25:25.589Z,23.68
2022-10-10T12:28:26.341Z,23.79
2022-10-10T12:31:30.319Z,23.66
2022-10-10T12:34:44.011Z,23.96
2022-10-10T12:37:33.445Z,23.75
2022-10-10T12:40:23.269Z,23.68
2022-10-10T12:43:26.051Z,23.81
2022-10-10T12:46:24.036Z,23.84
2022-10-10T12:49:21.175Z,23.78
2022-10-10T12:52:13.235Z,23.86
2022-10-10T12:55:08.956Z,23.66
2022-10-10T12:57:59.690Z,24.00
2022-10-10T13:00:48.952Z,24.07
2022-10-10T13:03:39.509Z,24.08
2022-10-10T13:06:34.672Z,24.04
2022-10-10T13:09:29.914Z,24.03
2022-10-10T13:12:28.755Z,23.99
2022-10-10T13:15:23.665Z,23.86
2022-10-10T13:18:12.096Z,23.57
2022-10-10T13:21:01.117Z,23.61
2022-10-10T13:27:02.198Z,23.39
2022-10-10T13:29:51.076Z,23.33
2022-10-10T13:32:39.517Z,23.23
2022-10-10T13:35:28.784Z,23.33
2022-10-10T13:38:18.568Z,23.32
2022-10-10T13:41:07.232Z,23.50
2022-10-10T13:43:57.095Z,23.44
2022-10-10T13:46:45.579Z,23.63
2022-10-10T13:49:34.078Z,23.65
2022-10-10T13:52:23.836Z,23.69
2022-10-10T13:55:16.551Z,23.63
2022-10-10T13:58:07.862Z,23.58
2022-10-10T14:01:00.517Z,23.69
2022-10-10T14:03:50.452Z,23.74
2022-10-10T14:06:39.381Z,23.77
2022-10-10T14:09:31.860Z,23.72
2022-10-10T14:12:24.770Z,23.71
2022-10-10T14:15:31.970Z,23.69
2022-10-10T14:18:24.019Z,23.62
2022-10-10T14:21:12.636Z,23.47
2022-10-10T14:24:02.556Z,23.46
2022-10-10T14:26:51.100Z,23.47
2022-10-10T14:29:39.794Z,23.45
2022-10-10T14:32:28.228Z,23.42
2022-10-10T14:35:18.094Z,23.52
2022-10-10T14:38:06.817Z,23.42
2022-10-10T14:40:56.057Z,23.41
2022-10-10T14:43:46.021Z,23.40
2022-10-10T14:46:34.705Z,23.17
2022-10-10T14:49:23.542Z,23.22
2022-10-10T14:52:13.660Z,23.16
2022-10-10T14:55:02.259Z,23.12
2022-10-10T14:57:50.792Z,23.17
2022-10-10T15:00:39.296Z,23.06
2022-10-10T15:03:27.981Z,22.98
2022-10-10T15:06:16.514Z,22.80
2022-10-10T15:09:27.660Z,22.09
2022-10-10T15:12:15.058Z,22.69
2022-10-10T15:15:04.322Z,22.60
2022-10-10T15:17:52.773Z,22.40
2022-10-10T15:20:41.212Z,22.43
2022-10-10T15:23:29.686Z,22.36
2022-10-10T15:26:19.681Z,22.33
2022-10-10T15:29:08.241Z,22.11
2022-10-10T15:31:56.657Z,22.21
2022-10-10T15:34:45.188Z,22.21
2022-10-10T15:37:33.636Z,22.25
2022-10-10T15:40:24.032Z,22.19
2022-10-10T15:43:15.886Z,22.17
2022-10-10T15:46:09.355Z,22.11
2022-10-10T15:49:03.642Z,22.06
2022-10-10T15:51:52.209Z,21.89
2022-10-10T15:54:41.189Z,21.73
2022-10-10T15:57:29.707Z,21.91
2022-10-10T16:00:19.916Z,21.81
2022-10-10T16:03:08.990Z,21.72
2022-10-10T16:05:57.832Z,21.64
2022-10-10T16:08:55.711Z,21.54
2022-10-10T16:11:52.837Z,21.35
2022-10-10T16:14:41.364Z,21.28
2022-10-10T16:17:31.150Z,21.15
2022-10-10T16:20:19.669Z,20.97
2022-10-10T16:23:08.291Z,20.79
2022-10-10T16:26:03.831Z,20.57
2022-10-10T16:28:52.704Z,20.48
2022-10-10T16:31:42.812Z,20.28
2022-10-10T16:34:32.629Z,20.28
2022-10-10T16:37:21.108Z,20.17
2022-10-10T16:40:10.550Z,20.11
2022-10-10T16:42:59.109Z,19.84
2022-10-10T16:45:47.762Z,19.85
2022-10-10T16:48:37.314Z,19.56
2022-10-10T16:51:28.761Z,19.63
2022-10-10T16:54:17.310Z,19.46
2022-10-10T16:57:06.358Z,19.34
2022-10-10T16:59:54.958Z,19.07
2022-10-10T17:02:43.440Z,19.02
2022-10-10T17:05:32.094Z,19.01
2022-10-10T17:08:21.888Z,18.87
2022-10-10T17:11:10.703Z,18.81
2022-10-10T17:13:59.227Z,18.53
2022-10-10T17:19:56.314Z,18.53
2022-10-10T17:22:45.002Z,18.46
2022-10-10T17:25:34.832Z,18.39
2022-10-10T17:28:23.339Z,18.23
2022-10-10T17:31:15.074Z,18.15
2022-10-10T17:34:03.536Z,18.18
2022-10-10T17:36:52.821Z,18.13
2022-10-10T17:39:41.312Z,17.98
2022-10-10T17:42:31.610Z,17.84
2022-10-10T17:45:20.218Z,17.74
2022-10-10T17:48:09.361Z,17.66
2022-10-10T17:50:58.006Z,17.38
2022-10-10T17:53:46.489Z,17.46
2022-10-10T17:56:35.711Z,17.53
2022-10-10T17:59:25.626Z,17.48
2022-10-10T18:02:16.494Z,17.41
2022-10-10T18:05:05.374Z,17.16
2022-10-10T18:07:55.136Z,17.31
2022-10-10T18:10:43.663Z,17.25
2022-10-10T18:13:32.223Z,17.23
2022-10-10T18:16:23.461Z,17.38
2022-10-10T18:19:12.365Z,17.31
2022-10-10T18:22:00.936Z,17.25
2022-10-10T18:24:49.446Z,17.18
2022-10-10T18:27:38.070Z,17.22
2022-10-10T18:30:26.792Z,17.16
2022-10-10T18:33:16.650Z,17.23
2022-10-10T18:36:06.694Z,17.19
2022-10-10T18:38:55.632Z,17.21
2022-10-10T18:41:44.172Z,17.27
2022-10-10T18:44:32.682Z,17.25
2022-10-10T18:47:21.624Z,17.18
2022-10-10T18:50:11.621Z,17.20
2022-10-10T18:53:00.160Z,17.23
2022-10-10T18:55:55.718Z,17.18
2022-10-10T18:58:44.275Z,17.14
2022-10-10T19:01:36.357Z,17.09
2022-10-10T19:04:25.458Z,16.98
2022-10-10T19:07:15.750Z,16.98
2022-10-10T19:10:05.103Z,16.97
2022-10-10T19:12:54.018Z,17.00
2022-10-10T19:15:42.617Z,16.88
2022-10-10T19:18:31.111Z,16.91
2022-10-10T19:21:19.566Z,16.89
2022-10-10T19:24:10.552Z,16.84
2022-10-10T19:26:59.141Z,16.73
2022-10-10T19:29:47.611Z,16.68
2022-10-10T19:32:36.124Z,16.63
2022-10-10T19:35:26.840Z,16.40
2022-10-10T19:38:16.950Z,16.63
2022-10-10T19:41:08.158Z,16.67
2022-10-10T19:43:58.018Z,16.41
2022-10-10T19:46:46.521Z,16.60
2022-10-10T19:49:35.041Z,16.57
2022-10-10T19:52:23.527Z,16.53
2022-10-10T19:55:12.047Z,16.61
2022-10-10T19:58:01.998Z,16.61
2022-10-10T20:00:50.500Z,16.88
2022-10-10T20:03:39.058Z,16.98
2022-10-10T20:06:27.989Z,17.02
2022-10-10T20:09:16.446Z,17.11
2022-10-10T20:12:05.049Z,17.18
2022-10-10T20:14:54.867Z,17.31
2022-10-10T20:17:43.375Z,17.36
2022-10-10T20:20:31.893Z,17.33
2022-10-10T20:23:22.722Z,17.33
2022-10-10T20:26:12.744Z,17.41
2022-10-10T20:29:01.889Z,17.49
2022-10-10T20:31:51.777Z,17.57
2022-10-10T20:34:40.312Z,17.50
2022-10-10T20:37:28.744Z,17.56
2022-10-10T20:40:17.343Z,17.54
2022-10-10T20:43:05.825Z,17.52
2022-10-10T20:45:54.305Z,17.49
2022-10-10T20:48:44.151Z,17.62
2022-10-10T20:51:32.694Z,17.45
2022-10-10T20:54:23.131Z,17.62
2022-10-10T20:57:11.658Z,17.64
2022-10-10T21:00:00.129Z,17.61
2022-10-10T21:02:49.364Z,17.51
2022-10-10T21:05:39.193Z,17.54
2022-10-10T21:08:29.143Z,17.62
2022-10-10T21:11:18.470Z,17.61
2022-10-10T21:14:06.969Z,17.57
2022-10-10T21:16:55.433Z,17.57
2022-10-10T21:19:44.115Z,17.63
2022-10-10T21:22:33.900Z,17.70
2022-10-10T21:25:22.370Z,17.66
2022-10-10T21:28:11.044Z,17.54
2022-10-10T21:30:59.639Z,17.66
2022-10-10T21:33:48.871Z,17.69
2022-10-10T21:36:37.758Z,17.89
2022-10-10T21:39:27.815Z,17.85
2022-10-10T21:42:16.237Z,17.87
2022-10-10T21:45:05.252Z,17.84
2022-10-10T21:47:53.687Z,17.70
2022-10-10T21:50:42.241Z,17.81
2022-10-10T21:53:30.808Z,17.90
2022-10-10T21:56:20.611Z,17.87
2022-10-10T21:59:09.149Z,17.90
2022-10-10T22:01:57.549Z,17.93
2022-10-10T22:04:45.967Z,17.81
2022-10-10T22:07:34.499Z,17.79
2022-10-10T22:10:23.117Z,17.75
2022-10-10T22:13:12.889Z,17.63
2022-10-10T22:16:02.040Z,17.58
2022-10-10T22:18:54.247Z,17.51
2022-10-10T22:21:42.697Z,17.46
2022-10-10T22:24:31.147Z,17.45
2022-10-10T22:27:19.922Z,17.47
2022-10-10T22:30:12.029Z,17.32
2022-10-10T22:33:00.464Z,17.45
2022-10-10T22:35:48.918Z,17.43
2022-10-10T22:38:38.854Z,17.46
2022-10-10T22:41:27.341Z,17.40
2022-10-10T22:44:16.534Z,17.36
2022-10-10T22:47:06.352Z,17.24
2022-10-10T22:49:54.800Z,17.23
2022-10-10T22:52:43.325Z,17.21
2022-10-10T22:55:31.765Z,16.93
2022-10-10T22:58:20.209Z,17.14
2022-10-10T23:01:10.397Z,17.11
2022-10-10T23:04:03.399Z,17.15
2022-10-10T23:06:51.844Z,17.05
2022-10-10T23:09:40.313Z,16.95
2022-10-10T23:12:28.859Z,16.98
2022-10-10T23:15:17.340Z,16.94
2022-10-10T23:18:05.915Z,16.84
2022-10-10T23:20:55.703Z,16.83
2022-10-10T23:23:44.147Z,16.76
2022-10-10T23:26:32.633Z,16.72
2022-10-10T23:29:21.057Z,16.66
2022-10-10T23:32:09.480Z,16.63
2022-10-10T23:34:57.939Z,16.59
2022-10-10T23:37:48.468Z,16.57
2022-10-10T23:40:36.884Z,16.51
2022-10-10T23:43:25.379Z,16.44
2022-10-10T23:46:14.311Z,16.31
2022-10-10T23:49:02.760Z,16.33
2022-10-10T23:51:51.174Z,16.28
2022-10-10T23:54:40.935Z,16.22
2022-10-10T23:57:29.369Z,16.17
